sensor_id;sensor_type;location;lat;lon;timestamp;temperature;humidity
67379;DHT22;54262;44.642;-0.974;2023-11-19T00:00:36;12.90;99.90
67379;DHT22;54262;44.642;-0.974;2023-11-19T00:03:02;12.80;99.90
67379;DHT22;54262;44.642;-0.974;2023-11-19T00:05:28;12.80;99.90
67379;DHT22;54262;44.642;-0.974;2023-11-19T00:07:54;12.70;99.90
67379;DHT22;54262;44.642;-0.974;2023-11-19T00:10:20;12.60;99.90
67379;DHT22;54262;44.642;-0.974;2023-11-19T00:12:49;12.70;99.90
67379;DHT22;54262;44.642;-0.974;2023-11-19T00:15:18;12.80;99.90
67379;DHT22;54262;44.642;-0.974;2023-11-19T00:17:47;12.70;99.90
67379;DHT22;54262;44.642;-0.974;2023-11-19T00:20:17;12.70;99.90
67379;DHT22;54262;44.642;-0.974;2023-11-19T00:22:45;12.80;99.90
67379;DHT22;54262;44.642;-0.974;2023-11-19T00:25:16;12.80;99.90
67379;DHT22;54262;44.642;-0.974;2023-11-19T00:27:42;12.70;99.90
67379;DHT22;54262;44.642;-0.974;2023-11-19T00:30:10;12.80;99.90
67379;DHT22;54262;44.642;-0.974;2023-11-19T00:32:36;12.80;99.90
67379;DHT22;54262;44.642;-0.974;2023-11-19T00:35:04;12.80;99.90
67379;DHT22;54262;44.642;-0.974;2023-11-19T00:37:30;12.80;99.90
67379;DHT22;54262;44.642;-0.974;2023-11-19T00:39:55;12.80;99.90
67379;DHT22;54262;44.642;-0.974;2023-11-19T00:42:24;12.80;99.90
67379;DHT22;54262;44.642;-0.974;2023-11-19T00:44:50;12.80;99.90
67379;DHT22;54262;44.642;-0.974;2023-11-19T00:47:16;12.80;99.90
67379;DHT22;54262;44.642;-0.974;2023-11-19T00:49:42;12.70;99.90
67379;DHT22;54262;44.642;-0.974;2023-11-19T00:52:08;12.70;99.90
67379;DHT22;54262;44.642;-0.974;2023-11-19T00:54:33;12.70;99.90
67379;DHT22;54262;44.642;-0.974;2023-11-19T00:56:59;12.70;99.90
67379;DHT22;54262;44.642;-0.974;2023-11-19T00:59:26;12.70;99.90
67379;DHT22;54262;44.642;-0.974;2023-11-19T01:01:54;12.70;99.90
67379;DHT22;54262;44.642;-0.974;2023-11-19T01:04:19;12.70;99.90
67379;DHT22;54262;44.642;-0.974;2023-11-19T01:06:45;12.60;99.90
67379;DHT22;54262;44.642;-0.974;2023-11-19T01:09:11;12.60;99.90
67379;DHT22;54262;44.642;-0.974;2023-11-19T01:11:36;12.70;99.90
67379;DHT22;54262;44.642;-0.974;2023-11-19T01:14:02;12.70;99.90
67379;DHT22;54262;44.642;-0.974;2023-11-19T01:16:28;12.70;99.90
67379;DHT22;54262;44.642;-0.974;2023-11-19T01:18:54;12.70;99.90
67379;DHT22;54262;44.642;-0.974;2023-11-19T01:21:22;12.70;99.90
67379;DHT22;54262;44.642;-0.974;2023-11-19T01:23:50;12.80;99.90
67379;DHT22;54262;44.642;-0.974;2023-11-19T01:26:15;12.70;99.90
67379;DHT22;54262;44.642;-0.974;2023-11-19T01:28:42;12.70;99.90
67379;DHT22;54262;44.642;-0.974;2023-11-19T01:31:15;12.70;99.90
67379;DHT22;54262;44.642;-0.974;2023-11-19T01:33:41;12.70;99.90
67379;DHT22;54262;44.642;-0.974;2023-11-19T01:36:08;12.70;99.90
67379;DHT22;54262;44.642;-0.974;2023-11-19T01:38:34;12.70;99.90
67379;DHT22;54262;44.642;-0.974;2023-11-19T01:41:00;12.70;99.90
67379;DHT22;54262;44.642;-0.974;2023-11-19T01:43:37;12.70;99.90
67379;DHT22;54262;44.642;-0.974;2023-11-19T01:46:05;12.70;99.90
67379;DHT22;54262;44.642;-0.974;2023-11-19T01:48:34;12.70;99.90
67379;DHT22;54262;44.642;-0.974;2023-11-19T01:51:05;12.80;99.90
67379;DHT22;54262;44.642;-0.974;2023-11-19T01:53:33;12.80;99.90
67379;DHT22;54262;44.642;-0.974;2023-11-19T01:56:00;12.70;99.90
67379;DHT22;54262;44.642;-0.974;2023-11-19T01:58:26;12.70;99.90
67379;DHT22;54262;44.642;-0.974;2023-11-19T02:00:53;12.70;99.90
67379;DHT22;54262;44.642;-0.974;2023-11-19T02:03:19;12.80;99.90
67379;DHT22;54262;44.642;-0.974;2023-11-19T02:05:45;12.80;99.90
67379;DHT22;54262;44.642;-0.974;2023-11-19T02:08:14;12.80;99.90
67379;DHT22;54262;44.642;-0.974;2023-11-19T02:10:40;12.80;99.90
67379;DHT22;54262;44.642;-0.974;2023-11-19T02:13:05;12.70;99.90
67379;DHT22;54262;44.642;-0.974;2023-11-19T02:15:32;12.70;99.90
67379;DHT22;54262;44.642;-0.974;2023-11-19T02:18:24;12.70;99.90
67379;DHT22;54262;44.642;-0.974;2023-11-19T02:20:59;12.70;99.90
67379;DHT22;54262;44.642;-0.974;2023-11-19T02:23:27;12.70;99.90
67379;DHT22;54262;44.642;-0.974;2023-11-19T02:28:46;12.70;99.90
67379;DHT22;54262;44.642;-0.974;2023-11-19T02:31:12;12.80;99.90
67379;DHT22;54262;44.642;-0.974;2023-11-19T02:33:38;12.80;99.90
67379;DHT22;54262;44.642;-0.974;2023-11-19T02:36:05;12.80;99.90
67379;DHT22;54262;44.642;-0.974;2023-11-19T02:38:33;12.80;99.90
67379;DHT22;54262;44.642;-0.974;2023-11-19T02:40:58;12.80;99.90
67379;DHT22;54262;44.642;-0.974;2023-11-19T02:43:24;12.90;99.90
67379;DHT22;54262;44.642;-0.974;2023-11-19T02:45:50;12.90;99.90
67379;DHT22;54262;44.642;-0.974;2023-11-19T02:48:16;13.00;99.90
67379;DHT22;54262;44.642;-0.974;2023-11-19T02:50:42;13.10;99.90
67379;DHT22;54262;44.642;-0.974;2023-11-19T02:53:08;13.10;99.90
67379;DHT22;54262;44.642;-0.974;2023-11-19T02:55:33;13.20;99.90
67379;DHT22;54262;44.642;-0.974;2023-11-19T02:58:04;13.30;99.90
67379;DHT22;54262;44.642;-0.974;2023-11-19T03:00:35;13.40;99.90
67379;DHT22;54262;44.642;-0.974;2023-11-19T03:03:12;13.40;99.90
67379;DHT22;54262;44.642;-0.974;2023-11-19T03:05:49;13.60;99.90
67379;DHT22;54262;44.642;-0.974;2023-11-19T03:08:17;13.60;99.90
67379;DHT22;54262;44.642;-0.974;2023-11-19T03:10:46;13.60;99.90
67379;DHT22;54262;44.642;-0.974;2023-11-19T03:13:15;13.60;99.90
67379;DHT22;54262;44.642;-0.974;2023-11-19T03:15:42;13.70;99.90
67379;DHT22;54262;44.642;-0.974;2023-11-19T03:18:08;13.80;99.90
67379;DHT22;54262;44.642;-0.974;2023-11-19T03:20:33;13.80;99.90
67379;DHT22;54262;44.642;-0.974;2023-11-19T03:22:59;13.90;99.90
67379;DHT22;54262;44.642;-0.974;2023-11-19T03:25:29;13.90;99.90
67379;DHT22;54262;44.642;-0.974;2023-11-19T03:28:04;14.00;99.90
67379;DHT22;54262;44.642;-0.974;2023-11-19T03:30:30;14.00;99.90
67379;DHT22;54262;44.642;-0.974;2023-11-19T03:32:59;14.00;99.90
67379;DHT22;54262;44.642;-0.974;2023-11-19T03:35:26;14.00;99.90
67379;DHT22;54262;44.642;-0.974;2023-11-19T03:37:53;14.10;99.90
67379;DHT22;54262;44.642;-0.974;2023-11-19T03:40:19;14.10;99.90
67379;DHT22;54262;44.642;-0.974;2023-11-19T03:42:48;14.10;99.90
67379;DHT22;54262;44.642;-0.974;2023-11-19T03:45:14;14.10;99.90
67379;DHT22;54262;44.642;-0.974;2023-11-19T03:47:41;14.10;99.90
67379;DHT22;54262;44.642;-0.974;2023-11-19T03:50:07;14.10;99.90
67379;DHT22;54262;44.642;-0.974;2023-11-19T03:52:41;14.20;99.90
67379;DHT22;54262;44.642;-0.974;2023-11-19T03:55:07;14.20;99.90
67379;DHT22;54262;44.642;-0.974;2023-11-19T03:57:34;14.10;99.90
67379;DHT22;54262;44.642;-0.974;2023-11-19T04:00:00;14.10;99.90
67379;DHT22;54262;44.642;-0.974;2023-11-19T04:02:30;14.20;99.90
67379;DHT22;54262;44.642;-0.974;2023-11-19T04:04:56;14.20;99.90
67379;DHT22;54262;44.642;-0.974;2023-11-19T04:07:22;14.20;99.90
67379;DHT22;54262;44.642;-0.974;2023-11-19T04:09:47;14.20;99.90
67379;DHT22;54262;44.642;-0.974;2023-11-19T04:12:13;14.20;99.90
67379;DHT22;54262;44.642;-0.974;2023-11-19T04:14:39;14.20;99.90
67379;DHT22;54262;44.642;-0.974;2023-11-19T04:17:06;14.30;99.90
67379;DHT22;54262;44.642;-0.974;2023-11-19T04:19:31;14.30;99.90
67379;DHT22;54262;44.642;-0.974;2023-11-19T04:21:58;14.30;99.90
67379;DHT22;54262;44.642;-0.974;2023-11-19T04:24:24;14.30;99.90
67379;DHT22;54262;44.642;-0.974;2023-11-19T04:26:52;14.40;99.90
67379;DHT22;54262;44.642;-0.974;2023-11-19T04:29:19;14.40;99.90
67379;DHT22;54262;44.642;-0.974;2023-11-19T04:31:45;14.40;99.90
67379;DHT22;54262;44.642;-0.974;2023-11-19T04:34:12;14.50;99.90
67379;DHT22;54262;44.642;-0.974;2023-11-19T04:36:38;14.40;99.90
67379;DHT22;54262;44.642;-0.974;2023-11-19T04:39:05;14.50;99.90
67379;DHT22;54262;44.642;-0.974;2023-11-19T04:41:35;14.40;99.90
67379;DHT22;54262;44.642;-0.974;2023-11-19T04:44:01;14.50;99.90
67379;DHT22;54262;44.642;-0.974;2023-11-19T04:46:27;14.50;99.90
67379;DHT22;54262;44.642;-0.974;2023-11-19T04:48:53;14.50;99.90
67379;DHT22;54262;44.642;-0.974;2023-11-19T04:51:18;14.50;99.90
67379;DHT22;54262;44.642;-0.974;2023-11-19T04:53:44;14.50;99.90
67379;DHT22;54262;44.642;-0.974;2023-11-19T04:56:11;14.60;99.90
67379;DHT22;54262;44.642;-0.974;2023-11-19T04:58:37;14.60;99.90
67379;DHT22;54262;44.642;-0.974;2023-11-19T05:01:03;14.70;99.90
67379;DHT22;54262;44.642;-0.974;2023-11-19T05:03:32;14.70;99.90
67379;DHT22;54262;44.642;-0.974;2023-11-19T05:05:58;14.70;99.90
67379;DHT22;54262;44.642;-0.974;2023-11-19T05:08:24;14.80;99.90
67379;DHT22;54262;44.642;-0.974;2023-11-19T05:10:50;14.70;99.90
67379;DHT22;54262;44.642;-0.974;2023-11-19T05:13:16;14.60;99.90
67379;DHT22;54262;44.642;-0.974;2023-11-19T05:15:42;14.70;99.90
67379;DHT22;54262;44.642;-0.974;2023-11-19T05:18:08;14.70;99.90
67379;DHT22;54262;44.642;-0.974;2023-11-19T05:20:34;14.70;99.90
67379;DHT22;54262;44.642;-0.974;2023-11-19T05:22:59;14.70;99.90
67379;DHT22;54262;44.642;-0.974;2023-11-19T05:25:28;14.70;99.90
67379;DHT22;54262;44.642;-0.974;2023-11-19T05:27:56;14.60;99.90
67379;DHT22;54262;44.642;-0.974;2023-11-19T05:30:23;14.60;99.90
67379;DHT22;54262;44.642;-0.974;2023-11-19T05:32:49;14.60;99.90
67379;DHT22;54262;44.642;-0.974;2023-11-19T05:35:15;14.50;99.90
67379;DHT22;54262;44.642;-0.974;2023-11-19T05:37:40;14.60;99.90
67379;DHT22;54262;44.642;-0.974;2023-11-19T05:40:07;14.60;99.90
67379;DHT22;54262;44.642;-0.974;2023-11-19T05:42:40;14.60;99.90
67379;DHT22;54262;44.642;-0.974;2023-11-19T05:45:06;14.60;99.90
67379;DHT22;54262;44.642;-0.974;2023-11-19T05:47:33;14.60;99.90
67379;DHT22;54262;44.642;-0.974;2023-11-19T05:49:59;14.60;99.90
67379;DHT22;54262;44.642;-0.974;2023-11-19T05:52:24;14.60;99.90
67379;DHT22;54262;44.642;-0.974;2023-11-19T05:54:50;14.60;99.90
67379;DHT22;54262;44.642;-0.974;2023-11-19T05:57:17;14.60;99.90
67379;DHT22;54262;44.642;-0.974;2023-11-19T05:59:49;14.60;99.90
67379;DHT22;54262;44.642;-0.974;2023-11-19T06:02:15;14.70;99.90
67379;DHT22;54262;44.642;-0.974;2023-11-19T06:04:41;14.70;99.90
67379;DHT22;54262;44.642;-0.974;2023-11-19T06:07:09;14.70;99.90
67379;DHT22;54262;44.642;-0.974;2023-11-19T06:09:35;14.70;99.90
67379;DHT22;54262;44.642;-0.974;2023-11-19T06:12:00;14.70;99.90
67379;DHT22;54262;44.642;-0.974;2023-11-19T06:14:27;14.70;99.90
67379;DHT22;54262;44.642;-0.974;2023-11-19T06:16:53;14.70;99.90
67379;DHT22;54262;44.642;-0.974;2023-11-19T06:19:19;14.80;99.90
67379;DHT22;54262;44.642;-0.974;2023-11-19T06:21:44;14.70;99.90
67379;DHT22;54262;44.642;-0.974;2023-11-19T06:24:10;14.70;99.90
67379;DHT22;54262;44.642;-0.974;2023-11-19T06:26:36;14.70;99.90
67379;DHT22;54262;44.642;-0.974;2023-11-19T06:29:03;14.70;99.90
67379;DHT22;54262;44.642;-0.974;2023-11-19T06:31:31;14.70;99.90
67379;DHT22;54262;44.642;-0.974;2023-11-19T06:33:57;14.70;99.90
67379;DHT22;54262;44.642;-0.974;2023-11-19T06:36:22;14.70;99.90
67379;DHT22;54262;44.642;-0.974;2023-11-19T06:38:48;14.70;99.90
67379;DHT22;54262;44.642;-0.974;2023-11-19T06:41:14;14.80;99.90
67379;DHT22;54262;44.642;-0.974;2023-11-19T06:43:39;14.80;99.90
67379;DHT22;54262;44.642;-0.974;2023-11-19T06:46:05;14.80;99.90
67379;DHT22;54262;44.642;-0.974;2023-11-19T06:48:34;14.80;99.90
67379;DHT22;54262;44.642;-0.974;2023-11-19T06:51:00;14.90;99.90
67379;DHT22;54262;44.642;-0.974;2023-11-19T06:53:26;14.80;99.90
67379;DHT22;54262;44.642;-0.974;2023-11-19T06:55:53;14.90;99.90
67379;DHT22;54262;44.642;-0.974;2023-11-19T06:58:19;14.90;99.90
67379;DHT22;54262;44.642;-0.974;2023-11-19T07:00:45;14.90;99.90
67379;DHT22;54262;44.642;-0.974;2023-11-19T07:03:12;14.90;99.90
67379;DHT22;54262;44.642;-0.974;2023-11-19T07:05:38;14.90;99.90
67379;DHT22;54262;44.642;-0.974;2023-11-19T07:08:08;14.90;99.90
67379;DHT22;54262;44.642;-0.974;2023-11-19T07:10:34;15.00;99.90
67379;DHT22;54262;44.642;-0.974;2023-11-19T07:12:59;15.00;99.90
67379;DHT22;54262;44.642;-0.974;2023-11-19T07:15:25;14.90;99.90
67379;DHT22;54262;44.642;-0.974;2023-11-19T07:17:51;15.00;99.90
67379;DHT22;54262;44.642;-0.974;2023-11-19T07:20:17;15.00;99.90
67379;DHT22;54262;44.642;-0.974;2023-11-19T07:22:43;15.00;99.90
67379;DHT22;54262;44.642;-0.974;2023-11-19T07:25:14;15.00;99.90
67379;DHT22;54262;44.642;-0.974;2023-11-19T07:27:40;15.00;99.90
67379;DHT22;54262;44.642;-0.974;2023-11-19T07:30:08;15.00;99.90
67379;DHT22;54262;44.642;-0.974;2023-11-19T07:32:36;15.00;99.90
67379;DHT22;54262;44.642;-0.974;2023-11-19T07:35:04;15.00;99.90
67379;DHT22;54262;44.642;-0.974;2023-11-19T07:37:31;15.00;99.90
67379;DHT22;54262;44.642;-0.974;2023-11-19T07:39:59;15.00;99.90
67379;DHT22;54262;44.642;-0.974;2023-11-19T07:42:25;15.20;99.90
67379;DHT22;54262;44.642;-0.974;2023-11-19T07:44:50;15.10;99.90
67379;DHT22;54262;44.642;-0.974;2023-11-19T07:47:16;15.10;99.90
67379;DHT22;54262;44.642;-0.974;2023-11-19T07:49:42;15.00;99.90
67379;DHT22;54262;44.642;-0.974;2023-11-19T07:52:09;15.20;99.90
67379;DHT22;54262;44.642;-0.974;2023-11-19T07:54:35;15.10;99.90
67379;DHT22;54262;44.642;-0.974;2023-11-19T07:57:00;15.10;99.90
67379;DHT22;54262;44.642;-0.974;2023-11-19T07:59:26;15.10;99.90
67379;DHT22;54262;44.642;-0.974;2023-11-19T08:01:55;15.10;99.90
67379;DHT22;54262;44.642;-0.974;2023-11-19T08:04:21;15.10;99.90
67379;DHT22;54262;44.642;-0.974;2023-11-19T08:06:46;15.10;99.90
67379;DHT22;54262;44.642;-0.974;2023-11-19T08:09:12;15.20;99.90
67379;DHT22;54262;44.642;-0.974;2023-11-19T08:11:40;15.20;99.90
67379;DHT22;54262;44.642;-0.974;2023-11-19T08:14:06;15.30;99.90
67379;DHT22;54262;44.642;-0.974;2023-11-19T08:16:31;15.30;99.90
67379;DHT22;54262;44.642;-0.974;2023-11-19T08:18:57;15.40;99.90
67379;DHT22;54262;44.642;-0.974;2023-11-19T08:21:23;15.40;99.90
67379;DHT22;54262;44.642;-0.974;2023-11-19T08:23:49;15.40;99.90
67379;DHT22;54262;44.642;-0.974;2023-11-19T08:26:15;15.50;99.90
67379;DHT22;54262;44.642;-0.974;2023-11-19T08:28:41;15.50;99.90
67379;DHT22;54262;44.642;-0.974;2023-11-19T08:31:09;15.60;99.90
67379;DHT22;54262;44.642;-0.974;2023-11-19T08:33:37;15.70;99.90
67379;DHT22;54262;44.642;-0.974;2023-11-19T08:36:03;15.80;99.90
67379;DHT22;54262;44.642;-0.974;2023-11-19T08:38:33;15.80;99.90
67379;DHT22;54262;44.642;-0.974;2023-11-19T08:40:58;15.80;99.90
67379;DHT22;54262;44.642;-0.974;2023-11-19T08:43:26;15.80;99.90
67379;DHT22;54262;44.642;-0.974;2023-11-19T08:45:52;15.80;99.90
67379;DHT22;54262;44.642;-0.974;2023-11-19T08:48:17;15.90;99.90
67379;DHT22;54262;44.642;-0.974;2023-11-19T08:50:43;15.90;99.90
67379;DHT22;54262;44.642;-0.974;2023-11-19T08:53:09;16.00;99.90
67379;DHT22;54262;44.642;-0.974;2023-11-19T08:55:34;16.00;99.90
67379;DHT22;54262;44.642;-0.974;2023-11-19T08:58:00;16.00;99.90
67379;DHT22;54262;44.642;-0.974;2023-11-19T09:00:26;16.20;99.90
67379;DHT22;54262;44.642;-0.974;2023-11-19T09:02:52;16.20;99.90
67379;DHT22;54262;44.642;-0.974;2023-11-19T09:05:17;16.30;99.90
67379;DHT22;54262;44.642;-0.974;2023-11-19T09:07:43;16.30;99.90
67379;DHT22;54262;44.642;-0.974;2023-11-19T09:10:09;16.30;99.90
67379;DHT22;54262;44.642;-0.974;2023-11-19T09:12:35;16.40;99.90
67379;DHT22;54262;44.642;-0.974;2023-11-19T09:15:01;16.40;99.90
67379;DHT22;54262;44.642;-0.974;2023-11-19T09:17:26;16.50;99.90
67379;DHT22;54262;44.642;-0.974;2023-11-19T09:19:52;16.50;99.90
67379;DHT22;54262;44.642;-0.974;2023-11-19T09:22:18;16.70;99.90
67379;DHT22;54262;44.642;-0.974;2023-11-19T09:24:43;16.70;99.90
67379;DHT22;54262;44.642;-0.974;2023-11-19T09:27:10;16.80;99.90
67379;DHT22;54262;44.642;-0.974;2023-11-19T09:29:36;16.80;99.90
67379;DHT22;54262;44.642;-0.974;2023-11-19T09:32:04;16.80;99.90
67379;DHT22;54262;44.642;-0.974;2023-11-19T09:34:32;16.90;99.90
67379;DHT22;54262;44.642;-0.974;2023-11-19T09:36:58;17.00;99.90
67379;DHT22;54262;44.642;-0.974;2023-11-19T09:39:24;17.00;99.90
67379;DHT22;54262;44.642;-0.974;2023-11-19T09:41:51;17.10;99.90
67379;DHT22;54262;44.642;-0.974;2023-11-19T09:44:17;17.10;99.90
67379;DHT22;54262;44.642;-0.974;2023-11-19T09:46:44;17.20;99.90
67379;DHT22;54262;44.642;-0.974;2023-11-19T09:49:11;17.20;99.90
67379;DHT22;54262;44.642;-0.974;2023-11-19T09:51:38;17.30;99.90
67379;DHT22;54262;44.642;-0.974;2023-11-19T09:54:04;17.30;99.90
67379;DHT22;54262;44.642;-0.974;2023-11-19T09:56:30;17.40;99.90
67379;DHT22;54262;44.642;-0.974;2023-11-19T09:58:59;17.40;99.90
67379;DHT22;54262;44.642;-0.974;2023-11-19T10:01:25;17.40;99.90
67379;DHT22;54262;44.642;-0.974;2023-11-19T10:03:54;17.50;99.90
67379;DHT22;54262;44.642;-0.974;2023-11-19T10:06:20;17.60;99.90
67379;DHT22;54262;44.642;-0.974;2023-11-19T10:08:47;17.60;99.90
67379;DHT22;54262;44.642;-0.974;2023-11-19T10:11:12;17.60;99.90
67379;DHT22;54262;44.642;-0.974;2023-11-19T10:13:39;17.60;99.90
67379;DHT22;54262;44.642;-0.974;2023-11-19T10:18:34;17.80;99.90
67379;DHT22;54262;44.642;-0.974;2023-11-19T10:21:04;17.90;99.90
67379;DHT22;54262;44.642;-0.974;2023-11-19T10:23:31;18.10;99.90
67379;DHT22;54262;44.642;-0.974;2023-11-19T10:26:03;18.20;99.90
67379;DHT22;54262;44.642;-0.974;2023-11-19T10:28:39;18.30;99.90
67379;DHT22;54262;44.642;-0.974;2023-11-19T10:31:08;18.40;99.90
67379;DHT22;54262;44.642;-0.974;2023-11-19T10:33:35;18.50;99.90
67379;DHT22;54262;44.642;-0.974;2023-11-19T10:36:04;18.60;99.90
67379;DHT22;54262;44.642;-0.974;2023-11-19T10:38:30;18.60;99.90
67379;DHT22;54262;44.642;-0.974;2023-11-19T10:40:56;18.60;99.90
67379;DHT22;54262;44.642;-0.974;2023-11-19T10:43:22;18.70;99.90
67379;DHT22;54262;44.642;-0.974;2023-11-19T10:45:49;18.70;99.90
67379;DHT22;54262;44.642;-0.974;2023-11-19T10:48:14;18.80;99.90
67379;DHT22;54262;44.642;-0.974;2023-11-19T10:50:41;18.90;99.90
67379;DHT22;54262;44.642;-0.974;2023-11-19T10:53:08;19.00;99.90
67379;DHT22;54262;44.642;-0.974;2023-11-19T10:55:38;19.00;99.90
67379;DHT22;54262;44.642;-0.974;2023-11-19T10:58:09;19.20;99.90
67379;DHT22;54262;44.642;-0.974;2023-11-19T11:00:56;19.20;99.90
67379;DHT22;54262;44.642;-0.974;2023-11-19T11:03:25;19.20;99.90
67379;DHT22;54262;44.642;-0.974;2023-11-19T11:05:52;19.30;99.90
67379;DHT22;54262;44.642;-0.974;2023-11-19T11:08:20;19.40;99.90
67379;DHT22;54262;44.642;-0.974;2023-11-19T11:10:55;19.50;99.90
67379;DHT22;54262;44.642;-0.974;2023-11-19T11:13:25;19.50;99.90
67379;DHT22;54262;44.642;-0.974;2023-11-19T11:15:53;19.60;99.90
67379;DHT22;54262;44.642;-0.974;2023-11-19T11:18:21;19.50;99.90
67379;DHT22;54262;44.642;-0.974;2023-11-19T11:20:49;19.60;99.90
67379;DHT22;54262;44.642;-0.974;2023-11-19T11:34:30;19.70;99.90
67379;DHT22;54262;44.642;-0.974;2023-11-19T11:39:40;19.80;99.90
67379;DHT22;54262;44.642;-0.974;2023-11-19T11:45:06;19.70;99.90
67379;DHT22;54262;44.642;-0.974;2023-11-19T11:50:15;19.80;99.90
67379;DHT22;54262;44.642;-0.974;2023-11-19T11:55:53;19.80;99.90
67379;DHT22;54262;44.642;-0.974;2023-11-19T11:58:30;19.80;99.90
67379;DHT22;54262;44.642;-0.974;2023-11-19T12:00:58;19.90;99.90
67379;DHT22;54262;44.642;-0.974;2023-11-19T12:03:27;19.90;99.90
67379;DHT22;54262;44.642;-0.974;2023-11-19T12:05:53;20.00;99.90
67379;DHT22;54262;44.642;-0.974;2023-11-19T12:08:20;20.10;99.90
67379;DHT22;54262;44.642;-0.974;2023-11-19T12:10:49;20.30;99.90
67379;DHT22;54262;44.642;-0.974;2023-11-19T12:13:16;20.40;99.90
67379;DHT22;54262;44.642;-0.974;2023-11-19T12:18:27;20.40;99.90
67379;DHT22;54262;44.642;-0.974;2023-11-19T12:20:53;20.40;99.90
67379;DHT22;54262;44.642;-0.974;2023-11-19T12:23:18;20.50;99.90
67379;DHT22;54262;44.642;-0.974;2023-11-19T12:25:44;20.50;99.90
67379;DHT22;54262;44.642;-0.974;2023-11-19T12:28:13;20.40;99.90
67379;DHT22;54262;44.642;-0.974;2023-11-19T12:30:40;20.40;99.90
67379;DHT22;54262;44.642;-0.974;2023-11-19T12:33:09;20.50;99.90
67379;DHT22;54262;44.642;-0.974;2023-11-19T12:35:44;20.50;99.90
67379;DHT22;54262;44.642;-0.974;2023-11-19T12:38:22;20.50;99.90
67379;DHT22;54262;44.642;-0.974;2023-11-19T12:41:10;20.60;99.90
67379;DHT22;54262;44.642;-0.974;2023-11-19T12:43:37;20.60;99.90
67379;DHT22;54262;44.642;-0.974;2023-11-19T12:46:23;20.60;99.90
67379;DHT22;54262;44.642;-0.974;2023-11-19T12:48:50;20.50;99.90
67379;DHT22;54262;44.642;-0.974;2023-11-19T12:51:15;20.60;99.90
67379;DHT22;54262;44.642;-0.974;2023-11-19T12:53:52;20.60;99.90
67379;DHT22;54262;44.642;-0.974;2023-11-19T12:56:20;20.60;99.90
67379;DHT22;54262;44.642;-0.974;2023-11-19T12:58:47;20.50;99.90
67379;DHT22;54262;44.642;-0.974;2023-11-19T13:01:19;20.60;99.90
67379;DHT22;54262;44.642;-0.974;2023-11-19T13:03:46;20.60;99.90
67379;DHT22;54262;44.642;-0.974;2023-11-19T13:06:13;20.70;99.90
67379;DHT22;54262;44.642;-0.974;2023-11-19T13:08:43;20.70;99.90
67379;DHT22;54262;44.642;-0.974;2023-11-19T13:11:14;20.60;99.90
67379;DHT22;54262;44.642;-0.974;2023-11-19T13:14:05;20.70;99.90
67379;DHT22;54262;44.642;-0.974;2023-11-19T13:16:35;20.80;99.90
67379;DHT22;54262;44.642;-0.974;2023-11-19T13:19:01;20.90;99.90
67379;DHT22;54262;44.642;-0.974;2023-11-19T13:21:27;20.80;99.90
67379;DHT22;54262;44.642;-0.974;2023-11-19T13:23:53;20.90;99.90
67379;DHT22;54262;44.642;-0.974;2023-11-19T13:26:18;20.80;99.90
67379;DHT22;54262;44.642;-0.974;2023-11-19T13:28:44;20.90;99.90
67379;DHT22;54262;44.642;-0.974;2023-11-19T13:31:09;20.90;99.90
67379;DHT22;54262;44.642;-0.974;2023-11-19T13:33:36;21.00;99.90
67379;DHT22;54262;44.642;-0.974;2023-11-19T13:36:04;21.00;99.90
67379;DHT22;54262;44.642;-0.974;2023-11-19T13:38:36;21.00;99.90
67379;DHT22;54262;44.642;-0.974;2023-11-19T13:41:02;20.80;99.90
67379;DHT22;54262;44.642;-0.974;2023-11-19T13:43:29;20.70;99.90
67379;DHT22;54262;44.642;-0.974;2023-11-19T13:45:55;20.60;99.90
67379;DHT22;54262;44.642;-0.974;2023-11-19T13:48:21;20.60;99.90
67379;DHT22;54262;44.642;-0.974;2023-11-19T13:50:47;20.50;99.90
67379;DHT22;54262;44.642;-0.974;2023-11-19T13:53:13;20.70;99.90
67379;DHT22;54262;44.642;-0.974;2023-11-19T13:55:39;20.70;99.90
67379;DHT22;54262;44.642;-0.974;2023-11-19T13:58:04;20.80;99.90
67379;DHT22;54262;44.642;-0.974;2023-11-19T14:00:30;20.90;99.90
67379;DHT22;54262;44.642;-0.974;2023-11-19T14:02:55;20.90;99.90
67379;DHT22;54262;44.642;-0.974;2023-11-19T14:05:21;20.90;99.90
67379;DHT22;54262;44.642;-0.974;2023-11-19T14:07:48;20.90;99.90
67379;DHT22;54262;44.642;-0.974;2023-11-19T14:10:14;20.90;99.90
67379;DHT22;54262;44.642;-0.974;2023-11-19T14:12:41;20.80;99.90
67379;DHT22;54262;44.642;-0.974;2023-11-19T14:15:08;20.80;99.90
67379;DHT22;54262;44.642;-0.974;2023-11-19T14:17:43;20.90;99.90
67379;DHT22;54262;44.642;-0.974;2023-11-19T14:20:09;20.90;99.90
67379;DHT22;54262;44.642;-0.974;2023-11-19T14:22:43;21.00;99.90
67379;DHT22;54262;44.642;-0.974;2023-11-19T14:25:09;20.90;99.90
67379;DHT22;54262;44.642;-0.974;2023-11-19T14:27:39;21.00;99.90
67379;DHT22;54262;44.642;-0.974;2023-11-19T14:30:08;21.00;99.90
67379;DHT22;54262;44.642;-0.974;2023-11-19T14:32:39;20.90;99.90
67379;DHT22;54262;44.642;-0.974;2023-11-19T14:35:06;20.90;99.90
67379;DHT22;54262;44.642;-0.974;2023-11-19T14:37:35;20.90;99.90
67379;DHT22;54262;44.642;-0.974;2023-11-19T14:40:03;20.90;99.90
67379;DHT22;54262;44.642;-0.974;2023-11-19T14:42:32;20.90;99.90
67379;DHT22;54262;44.642;-0.974;2023-11-19T14:44:58;20.90;99.90
67379;DHT22;54262;44.642;-0.974;2023-11-19T14:47:26;20.80;99.90
67379;DHT22;54262;44.642;-0.974;2023-11-19T14:49:52;20.80;99.90
67379;DHT22;54262;44.642;-0.974;2023-11-19T14:52:18;20.90;99.90
67379;DHT22;54262;44.642;-0.974;2023-11-19T14:54:43;20.90;99.90
67379;DHT22;54262;44.642;-0.974;2023-11-19T14:57:12;20.90;99.90
67379;DHT22;54262;44.642;-0.974;2023-11-19T14:59:38;20.80;99.90
67379;DHT22;54262;44.642;-0.974;2023-11-19T15:02:04;20.70;99.90
67379;DHT22;54262;44.642;-0.974;2023-11-19T15:04:31;20.70;99.90
67379;DHT22;54262;44.642;-0.974;2023-11-19T15:06:57;20.80;99.90
67379;DHT22;54262;44.642;-0.974;2023-11-19T15:09:23;20.80;99.90
67379;DHT22;54262;44.642;-0.974;2023-11-19T15:11:50;20.70;99.90
67379;DHT22;54262;44.642;-0.974;2023-11-19T15:14:18;20.70;99.90
67379;DHT22;54262;44.642;-0.974;2023-11-19T15:16:46;20.60;99.90
67379;DHT22;54262;44.642;-0.974;2023-11-19T15:19:12;20.40;99.90
67379;DHT22;54262;44.642;-0.974;2023-11-19T15:21:39;20.40;99.90
67379;DHT22;54262;44.642;-0.974;2023-11-19T15:24:06;20.30;99.90
67379;DHT22;54262;44.642;-0.974;2023-11-19T15:26:36;20.30;99.90
67379;DHT22;54262;44.642;-0.974;2023-11-19T15:29:02;20.10;99.90
67379;DHT22;54262;44.642;-0.974;2023-11-19T15:31:28;20.10;99.90
67379;DHT22;54262;44.642;-0.974;2023-11-19T15:33:55;20.10;99.90
67379;DHT22;54262;44.642;-0.974;2023-11-19T15:36:20;20.00;99.90
67379;DHT22;54262;44.642;-0.974;2023-11-19T15:38:48;20.00;99.90
67379;DHT22;54262;44.642;-0.974;2023-11-19T15:41:16;19.90;99.90
67379;DHT22;54262;44.642;-0.974;2023-11-19T15:43:42;19.80;99.90
67379;DHT22;54262;44.642;-0.974;2023-11-19T15:46:08;19.90;99.90